createdAt,value
2019-02-19T00:01:16.755Z,100225.84
2019-02-19T00:03:44.204Z,100223.71
2019-02-19T00:06:11.620Z,100226.81
2019-02-19T00:08:39.055Z,100227.30
2019-02-19T00:11:06.435Z,100233.70
2019-02-19T00:13:33.873Z,100226.08
2019-02-19T00:16:01.250Z,100226.43
2019-02-19T00:18:28.730Z,100227.53
2019-02-19T00:20:56.170Z,100229.28
2019-02-19T00:23:23.605Z,100230.73
2019-02-19T00:25:50.980Z,100231.21
2019-02-19T00:28:18.410Z,100235.02
2019-02-19T00:30:45.810Z,100232.98
2019-02-19T00:33:13.285Z,100236.90
2019-02-19T00:35:40.705Z,100235.84
2019-02-19T00:38:08.150Z,100236.41
2019-02-19T00:40:35.531Z,100225.83
2019-02-19T00:43:02.973Z,100228.34
2019-02-19T00:45:30.355Z,100227.37
2019-02-19T00:47:57.770Z,100231.30
2019-02-19T00:50:25.160Z,100226.64
2019-02-19T00:52:52.604Z,100237.70
2019-02-19T00:55:19.960Z,100234.21
2019-02-19T00:57:47.380Z,100229.11
2019-02-19T01:00:14.778Z,100237.90
2019-02-19T01:02:42.190Z,100225.76
2019-02-19T01:05:09.591Z,100228.61
2019-02-19T01:07:37.060Z,100232.30
2019-02-19T01:10:04.948Z,100229.30
2019-02-19T01:12:32.375Z,100230.27
2019-02-19T01:14:59.745Z,100224.77
2019-02-19T01:17:27.315Z,100224.03
2019-02-19T01:19:54.715Z,100223.21
2019-02-19T01:22:23.195Z,100222.03
2019-02-19T01:24:50.625Z,100225.48
2019-02-19T01:27:18.005Z,100224.30
2019-02-19T01:29:45.414Z,100231.08
2019-02-19T01:32:12.790Z,100227.73
2019-02-19T01:34:40.225Z,100232.95
2019-02-19T01:37:07.626Z,100235.94
2019-02-19T01:39:35.056Z,100228.58
2019-02-19T01:42:02.483Z,100228.45
2019-02-19T01:44:29.933Z,100222.72
2019-02-19T01:46:58.205Z,100221.65
2019-02-19T01:49:25.660Z,100223.79
2019-02-19T01:51:54.100Z,100215.69
2019-02-19T01:54:21.568Z,100223.21
2019-02-19T01:56:48.970Z,100224.27
2019-02-19T01:59:16.427Z,100221.30
2019-02-19T02:01:43.823Z,100217.38
2019-02-19T02:04:11.210Z,100214.84
2019-02-19T02:06:38.596Z,100211.62
2019-02-19T02:09:06.011Z,100208.02
2019-02-19T02:11:33.410Z,100203.37
2019-02-19T02:14:00.845Z,100202.44
2019-02-19T02:16:28.235Z,100204.69
2019-02-19T02:18:55.691Z,100203.38
2019-02-19T02:21:23.115Z,100203.61
2019-02-19T02:23:50.565Z,100202.30
2019-02-19T02:26:17.965Z,100195.41
2019-02-19T02:28:45.400Z,100195.26
2019-02-19T02:31:12.782Z,100196.37
2019-02-19T02:33:40.230Z,100192.63
2019-02-19T02:36:07.663Z,100200.96
2019-02-19T02:38:35.140Z,100196.55
2019-02-19T02:41:02.526Z,100199.17
2019-02-19T02:43:29.986Z,100210.10
2019-02-19T02:45:57.378Z,100197.72
2019-02-19T02:48:24.848Z,100211.41
2019-02-19T02:50:52.200Z,100211.87
2019-02-19T02:53:19.655Z,100210.53
2019-02-19T02:55:47.020Z,100213.73
2019-02-19T02:58:14.910Z,100213.09
2019-02-19T03:00:42.388Z,100215.27
2019-02-19T03:03:09.831Z,100212.39
2019-02-19T03:05:40.818Z,100209.66
2019-02-19T03:08:08.461Z,100201.07
2019-02-19T03:10:35.894Z,100207.23
2019-02-19T03:13:03.276Z,100209.66
2019-02-19T03:15:30.713Z,100206.53
2019-02-19T03:17:58.088Z,100213.48
2019-02-19T03:20:25.545Z,100217.13
2019-02-19T03:22:52.995Z,100217.69
2019-02-19T03:25:20.437Z,100224.50
2019-02-19T03:27:47.832Z,100223.75
2019-02-19T03:30:15.299Z,100219.31
2019-02-19T03:32:42.662Z,100219.48
2019-02-19T03:35:10.071Z,100226.51
2019-02-19T03:37:37.467Z,100206.05
2019-02-19T03:40:07.460Z,100211.48
2019-02-19T03:42:34.666Z,100208.78
2019-02-19T03:45:02.126Z,100206.15
2019-02-19T03:47:29.552Z,100209.75
2019-02-19T03:49:57.062Z,100214.25
2019-02-19T03:52:24.445Z,100214.73
2019-02-19T03:54:51.890Z,100221.16
2019-02-19T03:57:19.386Z,100220.81
2019-02-19T03:59:46.835Z,100222.34
2019-02-19T04:02:14.235Z,100234.86
2019-02-19T04:04:41.670Z,100234.96
2019-02-19T04:10:39.686Z,100237.00
2019-02-19T04:13:07.045Z,100239.47
2019-02-19T04:15:34.612Z,100234.11
2019-02-19T04:18:01.975Z,100244.61
2019-02-19T04:20:29.856Z,100231.84
2019-02-19T04:22:57.235Z,100244.82
2019-02-19T04:25:24.655Z,100233.39
2019-02-19T04:27:52.025Z,100242.90
2019-02-19T04:30:19.500Z,100245.50
2019-02-19T04:32:46.897Z,100237.64
2019-02-19T04:35:14.347Z,100246.53
2019-02-19T04:37:41.760Z,100252.50
2019-02-19T04:40:09.205Z,100253.78
2019-02-19T04:42:36.584Z,100257.61
2019-02-19T04:45:04.468Z,100259.12
2019-02-19T04:47:31.835Z,100267.94
2019-02-19T04:49:59.272Z,100270.77
2019-02-19T04:52:26.700Z,100264.68
2019-02-19T04:54:54.348Z,100266.11
2019-02-19T04:57:21.766Z,100264.68
2019-02-19T04:59:49.223Z,100269.41
2019-02-19T05:02:16.577Z,100267.97
2019-02-19T05:04:44.001Z,100274.99
2019-02-19T05:07:11.359Z,100271.29
2019-02-19T05:09:38.791Z,100273.88
2019-02-19T05:12:06.167Z,100274.19
2019-02-19T05:14:33.604Z,100276.52
2019-02-19T05:17:00.975Z,100276.44
2019-02-19T05:19:28.381Z,100273.47
2019-02-19T05:21:55.855Z,100280.06
2019-02-19T05:24:23.278Z,100291.84
2019-02-19T05:26:50.704Z,100296.33
2019-02-19T05:29:18.101Z,100301.20
2019-02-19T05:31:45.536Z,100313.45
2019-02-19T05:34:12.916Z,100314.38
2019-02-19T05:36:40.408Z,100304.26
2019-02-19T05:39:07.805Z,100309.23
2019-02-19T05:41:35.245Z,100306.18
2019-02-19T05:44:03.705Z,100304.73
2019-02-19T05:46:31.131Z,100305.34
2019-02-19T05:48:58.513Z,100306.40
2019-02-19T05:51:28.157Z,100308.06
2019-02-19T05:53:55.543Z,100309.92
2019-02-19T05:56:24.813Z,100300.16
2019-02-19T05:58:52.192Z,100304.73
2019-02-19T06:01:19.618Z,100306.88
2019-02-19T06:03:47.000Z,100307.13
2019-02-19T06:06:14.502Z,100316.98
2019-02-19T06:08:41.873Z,100315.45
2019-02-19T06:11:09.315Z,100320.69
2019-02-19T06:13:36.749Z,100321.52
2019-02-19T06:16:24.517Z,100334.95
2019-02-19T06:18:51.883Z,100321.16
2019-02-19T06:21:20.673Z,100320.83
2019-02-19T06:23:48.219Z,100334.16
2019-02-19T06:26:36.750Z,100338.52
2019-02-19T06:29:04.164Z,100335.59
2019-02-19T06:31:31.613Z,100347.72
2019-02-19T06:33:58.999Z,100350.51
2019-02-19T06:36:26.434Z,100346.53
2019-02-19T06:38:53.798Z,100338.92
2019-02-19T06:41:21.268Z,100345.27
2019-02-19T06:43:48.643Z,100337.77
2019-02-19T06:46:16.373Z,100346.77
2019-02-19T06:48:43.753Z,100346.11
2019-02-19T06:51:11.163Z,100351.60
2019-02-19T06:53:42.913Z,100356.92
2019-02-19T06:56:10.358Z,100364.16
2019-02-19T06:58:37.719Z,100363.11
2019-02-19T07:01:05.138Z,100365.73
2019-02-19T07:03:38.633Z,100371.09
2019-02-19T07:06:06.089Z,100365.73
2019-02-19T07:08:33.473Z,100376.66
2019-02-19T07:11:00.938Z,100385.08
2019-02-19T07:13:28.381Z,100393.72
2019-02-19T07:15:55.798Z,100397.25
2019-02-19T07:18:23.194Z,100392.77
2019-02-19T07:20:50.668Z,100396.59
2019-02-19T07:23:18.115Z,100408.81
2019-02-19T07:25:45.523Z,100405.16
2019-02-19T07:28:12.993Z,100401.70
2019-02-19T07:30:40.374Z,100402.09
2019-02-19T07:33:07.834Z,100400.61
2019-02-19T07:35:35.253Z,100401.23
2019-02-19T07:38:02.669Z,100407.24
2019-02-19T07:40:30.065Z,100404.71
2019-02-19T07:42:57.491Z,100406.64
2019-02-19T07:45:24.908Z,100415.31
2019-02-19T07:47:52.378Z,100410.39
2019-02-19T07:50:19.759Z,100406.52
2019-02-19T07:52:47.193Z,100410.30
2019-02-19T07:55:14.578Z,100416.98
2019-02-19T07:57:42.932Z,100416.80
2019-02-19T08:00:10.648Z,100419.91
2019-02-19T08:02:38.117Z,100417.16
2019-02-19T08:05:05.653Z,100424.63
2019-02-19T08:07:33.103Z,100417.61
2019-02-19T08:10:00.500Z,100428.87
2019-02-19T08:12:27.933Z,100434.63
2019-02-19T08:14:55.333Z,100429.27
2019-02-19T08:17:22.783Z,100427.86
2019-02-19T08:19:50.163Z,100417.91
2019-02-19T08:22:17.644Z,100433.36
2019-02-19T08:24:45.040Z,100438.86
2019-02-19T08:27:12.488Z,100427.91
2019-02-19T08:29:39.904Z,100430.53
2019-02-19T08:32:07.318Z,100429.95
2019-02-19T08:34:34.721Z,100432.66
2019-02-19T08:37:02.139Z,100442.57
2019-02-19T08:39:32.048Z,100449.81
2019-02-19T08:41:59.483Z,100441.83
2019-02-19T08:44:26.913Z,100449.73
2019-02-19T08:46:54.385Z,100453.40
2019-02-19T08:49:21.773Z,100450.64
2019-02-19T08:51:55.824Z,100453.40
2019-02-19T08:54:18.498Z,100459.28
2019-02-19T08:56:45.969Z,100460.28
2019-02-19T08:59:13.369Z,100464.05
2019-02-19T09:01:40.752Z,100459.80
2019-02-19T09:04:08.199Z,100467.02
2019-02-19T09:06:35.587Z,100458.53
2019-02-19T09:09:04.638Z,100460.80
2019-02-19T09:11:34.814Z,100468.30
2019-02-19T09:14:02.260Z,100465.42
2019-02-19T09:16:29.638Z,100473.16
2019-02-19T09:18:57.094Z,100474.94
2019-02-19T09:21:24.518Z,100466.92
2019-02-19T09:23:51.993Z,100460.63
2019-02-19T09:26:19.404Z,100472.30
2019-02-19T09:28:48.681Z,100470.06
2019-02-19T09:31:16.130Z,100465.05
2019-02-19T09:33:43.553Z,100463.08
2019-02-19T09:36:10.919Z,100466.05
2019-02-19T09:38:38.343Z,100464.73
2019-02-19T09:41:05.704Z,100466.02
2019-02-19T09:43:35.517Z,100462.82
2019-02-19T09:46:02.425Z,100462.08
2019-02-19T09:48:30.371Z,100457.89
2019-02-19T09:50:57.754Z,100458.20
2019-02-19T09:53:25.194Z,100469.25
2019-02-19T09:55:52.619Z,100464.29
2019-02-19T09:58:20.054Z,100467.92
2019-02-19T10:00:47.479Z,100471.11
2019-02-19T10:03:15.120Z,100478.95
2019-02-19T10:05:42.499Z,100472.86
2019-02-19T10:08:09.939Z,100478.95
2019-02-19T10:10:37.729Z,100469.50
2019-02-19T10:13:05.193Z,100473.38
2019-02-19T10:15:32.564Z,100479.34
2019-02-19T10:17:59.978Z,100478.70
2019-02-19T10:20:27.404Z,100476.67
2019-02-19T10:22:54.858Z,100469.89
2019-02-19T10:25:22.648Z,100465.84
2019-02-19T10:27:50.053Z,100481.23
2019-02-19T10:30:18.480Z,100475.61
2019-02-19T10:32:46.449Z,100483.48
2019-02-19T10:35:13.860Z,100471.00
2019-02-19T10:37:41.403Z,100487.02
2019-02-19T10:40:11.069Z,100489.72
2019-02-19T10:42:41.238Z,100500.74
2019-02-19T10:45:11.004Z,100500.99
2019-02-19T10:47:41.318Z,100501.03
2019-02-19T10:50:09.095Z,100502.75
2019-02-19T10:52:36.478Z,100495.05
2019-02-19T10:55:04.248Z,100477.86
2019-02-19T10:57:31.658Z,100475.48
2019-02-19T10:59:59.127Z,100494.45
2019-02-19T11:02:26.518Z,100496.23
2019-02-19T11:04:53.988Z,100494.32
2019-02-19T11:07:21.373Z,100499.28
2019-02-19T11:09:48.842Z,100504.63
2019-02-19T11:12:16.267Z,100501.03
2019-02-19T11:14:43.751Z,100497.80
2019-02-19T11:17:11.123Z,100501.51
2019-02-19T11:19:38.545Z,100496.28
2019-02-19T11:22:11.095Z,100496.89
2019-02-19T11:28:08.553Z,100487.61
2019-02-19T11:31:08.349Z,100482.98
2019-02-19T11:38:02.567Z,100481.53
2019-02-19T11:40:30.103Z,100483.31
2019-02-19T11:42:57.500Z,100489.30
2019-02-19T11:45:25.018Z,100474.50
2019-02-19T11:47:56.398Z,100481.08
2019-02-19T11:50:23.915Z,100478.36
2019-02-19T11:56:23.479Z,100468.92
2019-02-19T11:59:24.004Z,100470.61
2019-02-19T12:02:11.969Z,100461.28
2019-02-19T12:04:41.884Z,100454.11
2019-02-19T12:08:12.343Z,100453.23
2019-02-19T12:10:27.496Z,100453.25
2019-02-19T12:12:54.903Z,100447.99
2019-02-19T12:15:22.459Z,100440.27
2019-02-19T12:17:49.844Z,100445.62
2019-02-19T12:20:17.622Z,100450.55
2019-02-19T12:22:45.142Z,100458.17
2019-02-19T12:25:18.892Z,100457.11
2019-02-19T12:31:32.198Z,100456.74
2019-02-19T12:33:59.768Z,100454.84
2019-02-19T12:36:27.158Z,100460.20
2019-02-19T12:38:54.662Z,100446.95
2019-02-19T12:41:22.159Z,100440.86
2019-02-19T12:44:53.453Z,100432.83
2019-02-19T12:47:20.973Z,100443.47
2019-02-19T12:49:48.390Z,100441.34
2019-02-19T12:52:15.903Z,100445.30
2019-02-19T12:54:43.368Z,100447.94
2019-02-19T12:57:10.768Z,100450.42
2019-02-19T12:59:40.554Z,100450.19
2019-02-19T13:02:10.833Z,100460.45
2019-02-19T13:04:43.425Z,100445.52
2019-02-19T13:07:10.741Z,100447.78
2019-02-19T13:09:42.958Z,100448.51
2019-02-19T13:12:14.294Z,100456.26
2019-02-19T13:14:41.742Z,100448.84
2019-02-19T13:17:09.238Z,100449.69
2019-02-19T13:19:36.834Z,100455.31
2019-02-19T13:22:04.912Z,100438.71
2019-02-19T13:25:01.652Z,100440.05
2019-02-19T13:27:41.233Z,100462.97
2019-02-19T13:30:12.152Z,100470.13
2019-02-19T13:32:43.134Z,100458.43
2019-02-19T13:35:11.320Z,100457.13
2019-02-19T13:37:38.772Z,100456.89
2019-02-19T13:40:07.332Z,100450.77
2019-02-19T13:42:34.833Z,100452.81
2019-02-19T13:45:02.552Z,100453.16
2019-02-19T13:47:35.934Z,100464.16
2019-02-19T13:50:03.713Z,100471.20
2019-02-19T13:52:42.815Z,100460.83
2019-02-19T13:58:24.588Z,100477.05
2019-02-19T14:00:52.572Z,100471.44
2019-02-19T14:04:05.087Z,100480.97
2019-02-19T14:06:32.618Z,100492.44
2019-02-19T14:09:04.474Z,100484.81
2019-02-19T14:11:34.418Z,100486.48
2019-02-19T14:14:28.315Z,100485.66
2019-02-19T14:16:59.876Z,100487.69
2019-02-19T14:20:30.448Z,100482.09
2019-02-19T14:33:22.049Z,100488.66
2019-02-19T15:00:27.591Z,100506.92
2019-02-19T15:03:33.356Z,100500.58
2019-02-19T15:06:26.586Z,100505.45
2019-02-19T15:24:44.688Z,100504.12
2019-02-19T15:44:59.240Z,100516.50
2019-02-19T15:48:27.887Z,100517.70
2019-02-19T15:51:47.158Z,100521.64
2019-02-19T15:54:39.562Z,100522.09
2019-02-19T15:58:04.799Z,100516.23
2019-02-19T16:01:04.857Z,100516.61
2019-02-19T16:03:41.241Z,100518.02
2019-02-19T16:06:49.562Z,100525.98
2019-02-19T16:09:31.463Z,100521.46
2019-02-19T16:12:19.752Z,100519.22
2019-02-19T16:14:57.207Z,100508.32
2019-02-19T16:17:44.373Z,100510.36
2019-02-19T16:20:37.067Z,100523.73
2019-02-19T16:23:26.341Z,100516.89
2019-02-19T16:26:09.973Z,100508.77
2019-02-19T16:29:14.418Z,100499.08
2019-02-19T16:32:03.357Z,100510.05
2019-02-19T16:34:53.297Z,100507.51
2019-02-19T16:37:59.158Z,100502.39
2019-02-19T16:41:01.524Z,100508.22
2019-02-19T16:43:47.641Z,100503.22
2019-02-19T16:46:43.797Z,100509.20
2019-02-19T16:49:49.765Z,100512.02
2019-02-19T16:52:39.718Z,100517.98
2019-02-19T16:55:28.262Z,100522.16
2019-02-19T16:58:15.631Z,100529.43
2019-02-19T17:01:03.590Z,100534.77
2019-02-19T17:04:08.070Z,100540.02
2019-02-19T17:06:52.624Z,100545.65
2019-02-19T17:09:28.411Z,100538.84
2019-02-19T17:12:15.324Z,100546.09
2019-02-19T17:15:08.551Z,100550.83
2019-02-19T17:17:44.551Z,100548.20
2019-02-19T17:20:34.270Z,100546.20
2019-02-19T17:23:11.479Z,100556.46
2019-02-19T17:25:47.574Z,100552.63
2019-02-19T17:28:33.561Z,100559.79
2019-02-19T17:31:29.723Z,100561.30
2019-02-19T17:34:12.254Z,100566.34
2019-02-19T17:36:58.007Z,100567.05
2019-02-19T17:39:51.166Z,100570.86
2019-02-19T17:42:56.936Z,100575.63
2019-02-19T17:45:57.637Z,100577.98
2019-02-19T17:48:47.476Z,100581.44
2019-02-19T17:51:41.063Z,100591.10
2019-02-19T17:54:27.311Z,100592.89
2019-02-19T17:57:07.192Z,100599.45
2019-02-19T17:59:53.165Z,100601.20
2019-02-19T18:02:39.029Z,100604.75
2019-02-19T18:05:29.510Z,100609.52
2019-02-19T18:08:15.805Z,100610.64
2019-02-19T18:10:57.355Z,100616.55
2019-02-19T18:14:00.180Z,100615.68
2019-02-19T18:16:40.392Z,100607.34
2019-02-19T18:19:08.291Z,100612.70
2019-02-19T18:21:36.349Z,100607.08
2019-02-19T18:24:04.290Z,100609.70
2019-02-19T18:26:32.040Z,100613.75
2019-02-19T18:28:59.849Z,100620.09
2019-02-19T18:31:27.750Z,100626.95
2019-02-19T18:33:55.565Z,100629.10
2019-02-19T18:36:23.351Z,100623.86
2019-02-19T18:38:51.280Z,100625.77
2019-02-19T18:41:19.283Z,100622.06
2019-02-19T18:43:47.222Z,100623.16
2019-02-19T18:46:15.221Z,100621.19
2019-02-19T18:48:43.040Z,100628.80
2019-02-19T18:51:11.335Z,100636.87
2019-02-19T18:53:39.360Z,100641.59
2019-02-19T18:56:07.410Z,100646.83
2019-02-19T18:58:35.285Z,100652.25
2019-02-19T19:01:03.308Z,100652.05
2019-02-19T19:03:31.233Z,100654.88
2019-02-19T19:05:59.255Z,100656.97
2019-02-19T19:08:27.190Z,100656.62
2019-02-19T19:10:55.810Z,100653.40
2019-02-19T19:13:23.551Z,100656.14
2019-02-19T19:15:51.405Z,100651.73
2019-02-19T19:18:19.514Z,100657.53
2019-02-19T19:20:47.920Z,100656.14
2019-02-19T19:23:17.359Z,100653.40
2019-02-19T19:25:47.641Z,100652.00
2019-02-19T19:28:15.676Z,100652.00
2019-02-19T19:30:43.656Z,100644.70
2019-02-19T19:33:13.456Z,100658.16
2019-02-19T19:35:42.851Z,100662.69
2019-02-19T19:38:12.286Z,100670.07
2019-02-19T19:40:41.705Z,100674.09
2019-02-19T19:43:10.751Z,100672.16
2019-02-19T19:45:38.939Z,100671.53
2019-02-19T19:48:06.870Z,100674.03
2019-02-19T19:50:34.989Z,100670.87
2019-02-19T19:53:02.980Z,100674.09
2019-02-19T19:55:33.761Z,100674.11
2019-02-19T19:58:01.704Z,100681.43
2019-02-19T20:00:34.811Z,100684.00
2019-02-19T20:03:08.970Z,100680.69
2019-02-19T20:05:40.985Z,100681.17
2019-02-19T20:08:08.968Z,100678.88
2019-02-19T20:10:37.026Z,100679.84
2019-02-19T20:13:07.091Z,100684.13
2019-02-19T20:15:39.304Z,100686.86
2019-02-19T20:18:07.225Z,100689.32
2019-02-19T20:20:39.810Z,100683.81
2019-02-19T20:23:08.195Z,100694.36
2019-02-19T20:25:38.996Z,100696.22
2019-02-19T20:28:07.120Z,100698.31
2019-02-19T20:30:35.226Z,100696.41
2019-02-19T20:33:10.070Z,100693.63
2019-02-19T20:35:38.665Z,100700.17
2019-02-19T20:38:06.701Z,100700.00
2019-02-19T20:40:34.676Z,100701.59
2019-02-19T20:43:03.251Z,100703.92
2019-02-19T20:45:31.220Z,100705.06
2019-02-19T20:47:59.996Z,100711.03
2019-02-19T20:50:27.906Z,100710.19
2019-02-19T20:52:55.765Z,100718.58
2019-02-19T20:55:23.785Z,100715.39
2019-02-19T20:57:51.770Z,100719.77
2019-02-19T21:00:19.771Z,100719.48
2019-02-19T21:02:47.536Z,100713.06
2019-02-19T21:05:15.410Z,100708.94
2019-02-19T21:07:43.586Z,100718.37
2019-02-19T21:10:13.595Z,100719.19
2019-02-19T21:12:41.575Z,100714.44
2019-02-19T21:15:09.656Z,100720.13
2019-02-19T21:17:37.755Z,100722.25
2019-02-19T21:20:06.400Z,100726.17
2019-02-19T21:22:34.489Z,100720.66
2019-02-19T21:25:02.530Z,100730.34
2019-02-19T21:27:30.295Z,100732.59
2019-02-19T21:29:58.230Z,100734.08
2019-02-19T21:32:26.145Z,100737.60
2019-02-19T21:34:54.060Z,100730.20
2019-02-19T21:37:21.975Z,100734.77
2019-02-19T21:39:49.895Z,100738.83
2019-02-19T21:42:17.710Z,100740.89
2019-02-19T21:44:45.730Z,100742.42
2019-02-19T21:47:13.535Z,100739.70
2019-02-19T21:49:41.605Z,100742.59
2019-02-19T21:52:09.494Z,100731.02
2019-02-19T21:54:37.625Z,100740.40
2019-02-19T21:57:05.270Z,100737.97
2019-02-19T21:59:32.928Z,100735.65
2019-02-19T22:02:00.438Z,100738.80
2019-02-19T22:04:27.966Z,100743.55
2019-02-19T22:06:55.396Z,100745.20
2019-02-19T22:09:22.851Z,100745.75
2019-02-19T22:11:50.331Z,100754.80
2019-02-19T22:14:17.801Z,100754.52
2019-02-19T22:16:45.266Z,100749.66
2019-02-19T22:19:12.731Z,100747.77
2019-02-19T22:21:47.801Z,100754.28
2019-02-19T22:24:17.296Z,100756.16
2019-02-19T22:26:44.666Z,100755.22
2019-02-19T22:29:12.107Z,100749.05
2019-02-19T22:31:39.538Z,100752.20
2019-02-19T22:34:07.310Z,100752.66
2019-02-19T22:36:35.234Z,100752.27
2019-02-19T22:39:03.836Z,100753.31
2019-02-19T22:41:31.262Z,100753.84
2019-02-19T22:43:58.831Z,100763.88
2019-02-19T22:46:26.267Z,100760.67
2019-02-19T22:48:53.916Z,100760.77
2019-02-19T22:51:21.431Z,100758.63
2019-02-19T22:54:08.859Z,100757.50
2019-02-19T22:56:39.190Z,100751.17
2019-02-19T22:59:06.872Z,100760.90
2019-02-19T23:01:40.386Z,100759.23
2019-02-19T23:04:07.867Z,100759.06
2019-02-19T23:06:35.404Z,100768.63
2019-02-19T23:09:04.695Z,100761.14
2019-02-19T23:11:32.248Z,100763.84
2019-02-19T23:13:59.641Z,100761.23
2019-02-19T23:16:27.141Z,100771.27
2019-02-19T23:18:54.559Z,100776.66
2019-02-19T23:21:22.101Z,100777.20
2019-02-19T23:23:49.630Z,100783.14
2019-02-19T23:26:17.210Z,100783.21
2019-02-19T23:28:44.584Z,100782.08
2019-02-19T23:31:12.096Z,100783.28
2019-02-19T23:33:39.521Z,100783.38
2019-02-19T23:36:14.606Z,100783.91
2019-02-19T23:38:42.116Z,100789.92
2019-02-19T23:41:09.586Z,100781.64
2019-02-19T23:43:36.992Z,100780.41
2019-02-19T23:46:04.581Z,100785.95
2019-02-19T23:48:33.749Z,100787.25
2019-02-19T23:51:01.356Z,100792.00
2019-02-19T23:53:29.967Z,100782.97
2019-02-19T23:55:57.426Z,100786.02
2019-02-19T23:58:24.932Z,100790.39
